createdAt,value
2018-01-28T00:01:55.411Z,84.50
2018-01-28T00:04:22.983Z,84.90
2018-01-28T00:06:50.561Z,85.10
2018-01-28T00:09:18.099Z,85.20
2018-01-28T00:11:45.663Z,85.30
2018-01-28T00:14:13.232Z,85.80
2018-01-28T00:16:40.776Z,86.20
2018-01-28T00:19:08.338Z,86.20
2018-01-28T00:21:35.874Z,86.10
2018-01-28T00:24:04.208Z,85.30
2018-01-28T00:26:31.764Z,85.30
2018-01-28T00:28:59.341Z,85.00
2018-01-28T00:31:26.893Z,84.80
2018-01-28T00:33:54.479Z,85.00
2018-01-28T00:36:22.819Z,85.50
2018-01-28T00:38:50.368Z,85.50
2018-01-28T00:41:17.927Z,85.40
2018-01-28T00:43:45.483Z,85.50
2018-01-28T00:46:13.034Z,85.70
2018-01-28T00:48:40.606Z,85.70
2018-01-28T00:51:08.168Z,85.80
2018-01-28T00:53:35.723Z,85.50
2018-01-28T00:56:03.293Z,85.70
2018-01-28T00:58:30.850Z,85.70
2018-01-28T01:01:00.906Z,85.80
2018-01-28T01:03:28.461Z,85.60
2018-01-28T01:05:56.021Z,85.50
2018-01-28T01:08:23.608Z,86.40
2018-01-28T01:10:51.914Z,85.30
2018-01-28T01:13:19.480Z,85.20
2018-01-28T01:15:47.056Z,84.60
2018-01-28T01:18:14.647Z,84.60
2018-01-28T01:20:42.975Z,85.40
2018-01-28T01:23:10.549Z,85.40
2018-01-28T01:25:38.100Z,84.60
2018-01-28T01:28:05.675Z,84.50
2018-01-28T01:30:33.245Z,83.80
2018-01-28T01:33:00.786Z,83.30
2018-01-28T01:35:28.372Z,83.20
2018-01-28T01:37:55.929Z,83.20
2018-01-28T01:40:23.510Z,83.30
2018-01-28T01:42:51.839Z,82.50
2018-01-28T01:45:19.427Z,82.50
2018-01-28T01:47:46.989Z,82.80
2018-01-28T01:50:14.550Z,82.80
2018-01-28T01:52:42.099Z,83.00
2018-01-28T01:55:09.662Z,83.20
2018-01-28T01:57:37.228Z,82.70
2018-01-28T02:00:04.793Z,83.10
2018-01-28T02:02:32.351Z,82.70
2018-01-28T02:05:00.668Z,83.00
2018-01-28T02:07:28.245Z,83.00
2018-01-28T02:09:55.791Z,83.50
2018-01-28T02:12:23.353Z,83.90
2018-01-28T02:14:50.925Z,84.70
2018-01-28T02:17:18.474Z,84.80
2018-01-28T02:19:46.040Z,84.70
2018-01-28T02:22:13.600Z,85.00
2018-01-28T02:24:41.159Z,85.00
2018-01-28T02:27:08.705Z,85.50
2018-01-28T02:29:36.277Z,84.50
2018-01-28T02:32:03.826Z,84.20
2018-01-28T02:34:31.405Z,84.80
2018-01-28T02:36:58.946Z,85.10
2018-01-28T02:39:26.496Z,84.90
2018-01-28T02:41:54.070Z,84.60
2018-01-28T02:44:21.617Z,85.10
2018-01-28T02:46:49.184Z,85.20
2018-01-28T02:49:16.754Z,85.30
2018-01-28T02:51:44.325Z,85.30
2018-01-28T02:54:11.895Z,85.60
2018-01-28T02:56:39.455Z,85.70
2018-01-28T02:59:07.024Z,85.00
2018-01-28T03:01:34.566Z,85.20
2018-01-28T03:04:02.269Z,84.80
2018-01-28T03:06:30.571Z,84.20
2018-01-28T03:08:58.154Z,84.20
2018-01-28T03:11:25.732Z,83.90
2018-01-28T03:13:53.675Z,84.10
2018-01-28T03:16:21.218Z,84.20
2018-01-28T03:18:48.793Z,84.50
2018-01-28T03:21:16.359Z,85.40
2018-01-28T03:23:43.921Z,85.40
2018-01-28T03:26:11.499Z,85.00
2018-01-28T03:28:39.057Z,84.80
2018-01-28T03:31:06.625Z,85.20
2018-01-28T03:33:34.181Z,84.80
2018-01-28T03:36:01.768Z,85.20
2018-01-28T03:38:30.118Z,86.20
2018-01-28T03:40:57.684Z,86.20
2018-01-28T03:43:25.250Z,85.60
2018-01-28T03:45:52.825Z,85.00
2018-01-28T03:48:21.145Z,83.30
2018-01-28T03:50:48.696Z,83.20
2018-01-28T03:53:16.266Z,83.00
2018-01-28T03:55:43.812Z,82.90
2018-01-28T03:58:12.212Z,83.00
2018-01-28T04:00:39.747Z,82.70
2018-01-28T04:03:07.307Z,82.70
2018-01-28T04:05:34.856Z,82.50
2018-01-28T04:08:02.437Z,82.00
2018-01-28T04:10:30.011Z,81.80
2018-01-28T04:12:57.575Z,81.80
2018-01-28T04:15:25.141Z,81.40
2018-01-28T04:17:52.711Z,81.50
2018-01-28T04:20:20.281Z,81.40
2018-01-28T04:22:47.848Z,81.20
2018-01-28T04:25:15.435Z,81.10
2018-01-28T04:27:42.993Z,80.90
2018-01-28T04:30:11.343Z,81.20
2018-01-28T04:32:38.951Z,81.20
2018-01-28T04:35:07.283Z,81.60
2018-01-28T04:37:35.614Z,82.80
2018-01-28T04:40:03.190Z,82.00
2018-01-28T04:42:30.771Z,82.30
2018-01-28T04:44:58.339Z,82.40
2018-01-28T04:47:25.917Z,83.00
2018-01-28T04:49:54.222Z,83.70
2018-01-28T04:52:21.775Z,83.70
2018-01-28T04:54:49.330Z,83.50
2018-01-28T04:57:16.917Z,84.30
2018-01-28T04:59:44.472Z,84.10
2018-01-28T05:02:16.605Z,83.70
2018-01-28T05:04:44.927Z,83.00
2018-01-28T05:07:12.477Z,83.10
2018-01-28T05:09:40.044Z,83.20
2018-01-28T05:12:07.605Z,83.60
2018-01-28T05:14:35.174Z,83.50
2018-01-28T05:17:02.711Z,83.10
2018-01-28T05:19:30.284Z,82.70
2018-01-28T05:21:57.832Z,82.20
2018-01-28T05:24:25.427Z,82.20
2018-01-28T05:26:52.990Z,82.70
2018-01-28T05:29:21.314Z,83.50
2018-01-28T05:31:48.886Z,83.50
2018-01-28T05:34:16.450Z,83.80
2018-01-28T05:36:44.014Z,84.30
2018-01-28T05:39:11.551Z,84.80
2018-01-28T05:41:39.106Z,84.60
2018-01-28T05:44:06.649Z,84.60
2018-01-28T05:46:34.984Z,84.70
2018-01-28T05:49:02.537Z,84.70
2018-01-28T05:51:30.095Z,84.40
2018-01-28T05:53:57.673Z,84.40
2018-01-28T05:56:25.234Z,84.90
2018-01-28T05:58:52.805Z,85.30
2018-01-28T06:01:20.363Z,85.20
2018-01-28T06:03:47.958Z,85.20
2018-01-28T06:06:15.508Z,85.40
2018-01-28T06:08:43.842Z,85.40
2018-01-28T06:11:11.402Z,85.40
2018-01-28T06:13:38.953Z,85.80
2018-01-28T06:16:06.511Z,86.20
2018-01-28T06:18:34.065Z,86.40
2018-01-28T06:21:01.619Z,86.10
2018-01-28T06:23:29.194Z,86.10
2018-01-28T06:25:56.760Z,86.30
2018-01-28T06:28:24.313Z,86.50
2018-01-28T06:30:51.899Z,86.70
2018-01-28T06:33:20.217Z,86.70
2018-01-28T06:35:47.815Z,86.70
2018-01-28T06:38:15.374Z,86.60
2018-01-28T06:40:42.939Z,86.30
2018-01-28T06:43:10.519Z,86.20
2018-01-28T06:45:38.827Z,86.10
2018-01-28T06:48:06.398Z,86.10
2018-01-28T06:50:33.959Z,86.20
2018-01-28T06:53:01.546Z,86.20
2018-01-28T06:55:29.083Z,86.20
2018-01-28T06:57:56.666Z,86.50
2018-01-28T07:00:24.203Z,86.30
2018-01-28T07:02:51.748Z,86.70
2018-01-28T07:05:19.324Z,86.70
2018-01-28T07:07:46.872Z,86.40
2018-01-28T07:10:14.426Z,86.00
2018-01-28T07:12:41.972Z,85.40
2018-01-28T07:15:09.541Z,85.00
2018-01-28T07:17:37.102Z,84.30
2018-01-28T07:20:04.680Z,84.60
2018-01-28T07:22:32.240Z,84.90
2018-01-28T07:24:59.804Z,85.40
2018-01-28T07:27:27.370Z,85.50
2018-01-28T07:29:54.926Z,85.50
2018-01-28T07:32:22.502Z,85.50
2018-01-28T07:34:50.058Z,84.50
2018-01-28T07:37:17.611Z,83.60
2018-01-28T07:39:45.146Z,83.90
2018-01-28T07:42:12.694Z,82.60
2018-01-28T07:44:40.232Z,81.80
2018-01-28T07:47:08.568Z,81.10
2018-01-28T07:49:36.105Z,81.10
2018-01-28T07:52:03.656Z,81.30
2018-01-28T07:54:31.213Z,81.80
2018-01-28T07:56:58.782Z,81.00
2018-01-28T07:59:26.352Z,79.80
2018-01-28T08:01:53.909Z,79.70
2018-01-28T08:04:21.490Z,79.40
2018-01-28T08:06:49.039Z,79.00
2018-01-28T08:09:16.609Z,78.90
2018-01-28T08:11:49.889Z,79.20
2018-01-28T08:14:20.025Z,79.00
2018-01-28T08:16:47.569Z,78.80
2018-01-28T08:19:15.130Z,78.80
2018-01-28T08:21:42.719Z,78.80
2018-01-28T08:24:10.268Z,79.20
2018-01-28T08:29:40.232Z,79.20
2018-01-28T08:32:08.579Z,79.50
2018-01-28T08:34:36.127Z,79.50
2018-01-28T08:37:03.684Z,80.00
2018-01-28T08:39:31.799Z,80.00
2018-01-28T08:42:00.136Z,79.20
2018-01-28T08:44:27.689Z,79.20
2018-01-28T08:46:55.244Z,79.00
2018-01-28T08:49:22.798Z,79.20
2018-01-28T08:51:50.354Z,79.10
2018-01-28T08:54:17.907Z,79.30
2018-01-28T08:56:45.443Z,79.70
2018-01-28T08:59:13.787Z,79.40
2018-01-28T09:01:42.111Z,79.70
2018-01-28T09:04:09.703Z,79.80
2018-01-28T09:06:37.261Z,79.70
2018-01-28T09:09:04.820Z,79.70
2018-01-28T09:11:32.399Z,79.60
2018-01-28T09:13:59.953Z,79.10
2018-01-28T09:16:27.530Z,79.20
2018-01-28T09:18:55.089Z,78.90
2018-01-28T09:21:22.643Z,78.40
2018-01-28T09:23:50.207Z,77.90
2018-01-28T09:26:17.785Z,77.30
2018-01-28T09:28:46.109Z,77.50
2018-01-28T09:31:13.659Z,77.40
2018-01-28T09:33:41.228Z,77.10
2018-01-28T09:36:08.785Z,76.60
2018-01-28T09:38:36.375Z,76.60
2018-01-28T09:41:05.446Z,76.00
2018-01-28T09:43:33.017Z,76.00
2018-01-28T09:46:00.557Z,76.00
2018-01-28T09:48:28.111Z,75.60
2018-01-28T09:50:55.659Z,76.00
2018-01-28T09:53:23.256Z,76.00
2018-01-28T09:55:50.863Z,75.80
2018-01-28T09:58:19.179Z,75.60
2018-01-28T10:00:46.762Z,75.60
2018-01-28T10:03:14.299Z,75.60
2018-01-28T10:05:41.860Z,76.10
2018-01-28T10:08:09.412Z,76.20
2018-01-28T10:10:36.962Z,75.50
2018-01-28T10:13:04.495Z,75.50
2018-01-28T10:15:32.841Z,76.70
2018-01-28T10:18:00.386Z,76.60
2018-01-28T10:20:27.946Z,75.50
2018-01-28T10:22:55.509Z,75.00
2018-01-28T10:25:23.082Z,74.70
2018-01-28T10:27:53.112Z,74.60
2018-01-28T10:30:24.953Z,74.70
2018-01-28T10:32:54.081Z,74.70
2018-01-28T10:35:22.434Z,75.20
2018-01-28T10:37:51.306Z,74.60
2018-01-28T10:40:19.054Z,74.50
2018-01-28T10:42:46.620Z,74.70
2018-01-28T10:45:14.194Z,74.50
2018-01-28T10:47:41.749Z,73.80
2018-01-28T10:50:09.323Z,73.20
2018-01-28T10:52:37.061Z,73.80
2018-01-28T10:55:04.653Z,72.60
2018-01-28T10:57:32.211Z,72.30
2018-01-28T10:59:59.777Z,73.20
2018-01-28T11:02:28.102Z,73.40
2018-01-28T11:04:55.673Z,73.40
2018-01-28T11:07:23.231Z,73.80
2018-01-28T11:09:50.763Z,73.80
2018-01-28T11:12:18.343Z,74.00
2018-01-28T11:14:45.904Z,73.00
2018-01-28T11:17:13.458Z,72.80
2018-01-28T11:19:40.994Z,73.00
2018-01-28T11:22:09.408Z,72.50
2018-01-28T11:24:36.967Z,72.40
2018-01-28T11:27:04.538Z,72.30
2018-01-28T11:29:32.094Z,72.10
2018-01-28T11:31:59.677Z,72.00
2018-01-28T11:34:27.243Z,72.10
2018-01-28T11:36:54.784Z,71.80
2018-01-28T11:39:22.356Z,71.90
2018-01-28T11:41:49.913Z,72.10
2018-01-28T11:44:17.496Z,72.20
2018-01-28T11:46:45.803Z,72.80
2018-01-28T11:49:13.383Z,72.80
2018-01-28T11:51:40.929Z,72.10
2018-01-28T11:54:08.500Z,72.50
2018-01-28T11:56:36.065Z,72.40
2018-01-28T11:59:03.617Z,72.50
2018-01-28T12:01:31.199Z,72.10
2018-01-28T12:03:58.772Z,71.70
2018-01-28T12:06:26.327Z,71.30
2018-01-28T12:08:53.885Z,70.60
2018-01-28T12:11:21.448Z,70.40
2018-01-28T12:13:50.653Z,70.60
2018-01-28T12:16:21.184Z,71.00
2018-01-28T12:18:51.301Z,71.40
2018-01-28T12:21:19.968Z,71.30
2018-01-28T12:23:49.531Z,71.10
2018-01-28T12:26:19.383Z,70.00
2018-01-28T12:28:49.147Z,69.60
2018-01-28T12:31:17.684Z,69.00
2018-01-28T12:33:45.249Z,68.90
2018-01-28T12:36:12.786Z,68.60
2018-01-28T12:38:40.748Z,68.60
2018-01-28T12:41:09.224Z,68.40
2018-01-28T12:43:36.798Z,68.40
2018-01-28T12:46:04.358Z,68.50
2018-01-28T12:48:31.921Z,68.30
2018-01-28T12:50:59.499Z,68.20
2018-01-28T12:53:27.067Z,69.00
2018-01-28T12:55:54.624Z,68.30
2018-01-28T12:58:22.185Z,68.10
2018-01-28T13:00:49.739Z,68.50
2018-01-28T13:03:17.298Z,68.50
2018-01-28T13:05:44.876Z,68.60
2018-01-28T13:08:13.220Z,68.80
2018-01-28T13:10:40.792Z,68.80
2018-01-28T13:13:08.355Z,68.50
2018-01-28T13:15:35.976Z,68.50
2018-01-28T13:18:03.533Z,68.20
2018-01-28T13:20:31.084Z,68.30
2018-01-28T13:22:58.663Z,68.50
2018-01-28T13:25:26.231Z,69.00
2018-01-28T13:27:53.798Z,69.80
2018-01-28T13:30:21.337Z,69.60
2018-01-28T13:32:48.897Z,69.40
2018-01-28T13:35:16.458Z,69.30
2018-01-28T13:37:44.023Z,69.10
2018-01-28T13:40:11.607Z,69.10
2018-01-28T13:42:39.343Z,69.20
2018-01-28T13:45:06.926Z,69.40
2018-01-28T13:47:35.279Z,68.80
2018-01-28T13:50:02.863Z,68.80
2018-01-28T13:52:30.437Z,68.30
2018-01-28T13:54:58.005Z,67.30
2018-01-28T13:57:26.363Z,66.20
2018-01-28T13:59:53.911Z,66.20
2018-01-28T14:02:21.483Z,66.30
2018-01-28T14:04:49.044Z,66.00
2018-01-28T14:07:16.628Z,65.90
2018-01-28T14:09:44.966Z,64.80
2018-01-28T14:12:13.327Z,65.10
2018-01-28T14:14:40.894Z,64.30
2018-01-28T14:17:08.459Z,63.20
2018-01-28T14:19:36.020Z,63.60
2018-01-28T14:22:03.587Z,61.70
2018-01-28T14:24:31.154Z,61.90
2018-01-28T14:26:58.718Z,60.30
2018-01-28T14:29:26.290Z,60.10
2018-01-28T14:31:53.853Z,59.40
2018-01-28T14:34:22.209Z,59.40
2018-01-28T14:36:49.775Z,59.40
2018-01-28T14:39:17.348Z,59.50
2018-01-28T14:41:44.909Z,59.50
2018-01-28T14:44:13.232Z,57.60
2018-01-28T14:46:40.805Z,56.80
2018-01-28T14:49:08.371Z,57.10
2018-01-28T14:51:36.027Z,56.00
2018-01-28T14:54:03.604Z,55.00
2018-01-28T14:56:31.180Z,54.80
2018-01-28T14:58:59.015Z,54.80
2018-01-28T15:01:26.597Z,55.20
2018-01-28T15:03:54.149Z,54.70
2018-01-28T15:06:21.752Z,54.30
2018-01-28T15:08:50.100Z,53.30
2018-01-28T15:11:17.661Z,53.30
2018-01-28T15:13:45.232Z,53.80
2018-01-28T15:16:12.785Z,53.90
2018-01-28T15:18:40.370Z,53.50
2018-01-28T15:21:08.706Z,52.80
2018-01-28T15:23:36.291Z,52.90
2018-01-28T15:26:04.603Z,53.70
2018-01-28T15:28:32.181Z,53.60
2018-01-28T15:31:01.908Z,52.80
2018-01-28T15:33:29.473Z,53.00
2018-01-28T15:35:57.049Z,53.50
2018-01-28T15:38:24.604Z,54.60
2018-01-28T15:40:52.167Z,53.90
2018-01-28T15:43:19.744Z,53.60
2018-01-28T15:45:48.084Z,53.70
2018-01-28T15:48:15.628Z,53.60
2018-01-28T15:50:43.196Z,53.40
2018-01-28T15:53:10.771Z,53.40
2018-01-28T15:55:38.337Z,53.90
2018-01-28T15:58:05.913Z,53.60
2018-01-28T16:00:34.238Z,53.80
2018-01-28T16:03:01.815Z,53.80
2018-01-28T16:05:29.386Z,54.10
2018-01-28T16:07:56.957Z,54.90
2018-01-28T16:10:24.517Z,54.60
2018-01-28T16:12:52.095Z,54.60
2018-01-28T16:15:20.408Z,55.00
2018-01-28T16:17:48.003Z,55.00
2018-01-28T16:20:15.642Z,55.20
2018-01-28T16:22:43.187Z,55.60
2018-01-28T16:25:10.744Z,55.40
2018-01-28T16:27:38.298Z,56.00
2018-01-28T16:30:05.870Z,56.00
2018-01-28T16:32:33.435Z,56.00
2018-01-28T16:35:01.004Z,56.10
2018-01-28T16:37:28.547Z,56.30
2018-01-28T16:39:56.140Z,56.40
2018-01-28T16:42:23.691Z,57.40
2018-01-28T16:44:51.245Z,57.60
2018-01-28T16:47:18.810Z,58.30
2018-01-28T16:49:46.371Z,58.40
2018-01-28T16:52:13.955Z,58.20
2018-01-28T16:54:41.499Z,58.90
2018-01-28T16:57:09.069Z,58.20
2018-01-28T16:59:37.559Z,58.10
2018-01-28T17:02:05.483Z,58.10
2018-01-28T17:04:33.409Z,58.30
2018-01-28T17:07:01.720Z,57.90
2018-01-28T17:09:29.352Z,57.90
2018-01-28T17:11:56.868Z,58.20
2018-01-28T17:14:24.431Z,58.60
2018-01-28T17:16:51.984Z,58.60
2018-01-28T17:19:19.538Z,58.30
2018-01-28T17:21:47.079Z,58.20
2018-01-28T17:24:14.654Z,57.40
2018-01-28T17:26:42.223Z,57.30
2018-01-28T17:29:10.523Z,57.10
2018-01-28T17:31:38.091Z,56.80
2018-01-28T17:34:06.413Z,56.00
2018-01-28T17:36:33.973Z,56.00
2018-01-28T17:39:01.527Z,55.90
2018-01-28T17:41:29.098Z,55.60
2018-01-28T17:43:56.659Z,54.90
2018-01-28T17:46:24.265Z,54.20
2018-01-28T17:48:52.580Z,54.50
2018-01-28T17:51:20.157Z,54.60
2018-01-28T17:53:47.735Z,54.60
2018-01-28T17:56:15.306Z,54.40
2018-01-28T17:58:42.870Z,55.30
2018-01-28T18:01:10.424Z,55.20
2018-01-28T18:03:38.017Z,54.60
2018-01-28T18:06:05.567Z,54.10
2018-01-28T18:08:33.918Z,54.00
2018-01-28T18:11:01.486Z,53.90
2018-01-28T18:13:29.043Z,54.00
2018-01-28T18:15:56.615Z,53.40
2018-01-28T18:18:24.955Z,53.70
2018-01-28T18:20:52.529Z,53.70
2018-01-28T18:23:20.067Z,53.20
2018-01-28T18:25:47.645Z,52.40
2018-01-28T18:28:15.977Z,50.90
2018-01-28T18:30:43.543Z,50.90
2018-01-28T18:33:11.105Z,51.10
2018-01-28T18:35:38.673Z,50.90
2018-01-28T18:38:06.225Z,50.80
2018-01-28T18:40:33.824Z,49.40
2018-01-28T18:43:01.366Z,49.40
2018-01-28T18:45:28.940Z,53.20
2018-01-28T18:47:56.521Z,53.80
2018-01-28T18:50:24.091Z,53.10
2018-01-28T18:52:52.418Z,52.60
2018-01-28T18:55:19.959Z,52.50
2018-01-28T18:57:47.535Z,52.50
2018-01-28T19:00:15.083Z,52.40
2018-01-28T19:02:42.665Z,53.10
2018-01-28T19:05:10.220Z,53.90
2018-01-28T19:07:37.773Z,53.10
2018-01-28T19:10:05.363Z,52.70
2018-01-28T19:12:32.930Z,52.90
2018-01-28T19:15:00.518Z,53.00
2018-01-28T19:17:28.067Z,53.20
2018-01-28T19:19:56.423Z,53.10
2018-01-28T19:22:23.989Z,53.00
2018-01-28T19:24:51.565Z,53.00
2018-01-28T19:27:19.903Z,52.30
2018-01-28T19:29:47.470Z,52.20
2018-01-28T19:32:15.034Z,51.40
2018-01-28T19:34:42.592Z,51.00
2018-01-28T19:37:10.161Z,51.10
2018-01-28T19:39:37.742Z,50.70
2018-01-28T19:42:06.088Z,51.00
2018-01-28T19:44:33.652Z,50.90
2018-01-28T19:47:01.217Z,50.10
2018-01-28T19:49:28.791Z,50.00
2018-01-28T19:51:57.132Z,50.20
2018-01-28T19:54:24.720Z,50.20
2018-01-28T19:56:52.262Z,49.90
2018-01-28T19:59:19.819Z,50.30
2018-01-28T20:01:47.392Z,50.40
2018-01-28T20:04:14.955Z,50.50
2018-01-28T20:06:42.527Z,51.30
2018-01-28T20:09:10.869Z,50.70
2018-01-28T20:11:38.444Z,50.70
2018-01-28T20:14:06.025Z,50.70
2018-01-28T20:16:34.367Z,51.20
2018-01-28T20:19:01.922Z,51.10
2018-01-28T20:21:29.517Z,51.80
2018-01-28T20:23:57.855Z,51.90
2018-01-28T20:26:25.415Z,51.90
2018-01-28T20:28:52.982Z,52.50
2018-01-28T20:31:20.556Z,52.30
2018-01-28T20:33:48.131Z,52.60
2018-01-28T20:36:15.703Z,52.80
2018-01-28T20:38:44.172Z,53.80
2018-01-28T20:41:12.503Z,54.50
2018-01-28T20:43:40.083Z,54.10
2018-01-28T20:46:07.629Z,54.50
2018-01-28T20:48:35.210Z,54.30
2018-01-28T20:51:02.784Z,54.30
2018-01-28T20:53:30.371Z,54.10
2018-01-28T20:55:58.698Z,56.00
2018-01-28T20:58:26.270Z,56.00
2018-01-28T21:00:53.821Z,56.90
2018-01-28T21:03:21.412Z,57.30
2018-01-28T21:05:49.747Z,57.60
2018-01-28T21:08:17.286Z,57.60
2018-01-28T21:10:44.857Z,58.20
2018-01-28T21:13:12.391Z,57.30
2018-01-28T21:15:39.961Z,58.40
2018-01-28T21:18:07.495Z,59.50
2018-01-28T21:20:35.839Z,61.00
2018-01-28T21:23:03.403Z,60.90
2018-01-28T21:25:30.980Z,61.40
2018-01-28T21:27:58.538Z,61.50
2018-01-28T21:30:26.098Z,60.10
2018-01-28T21:32:53.651Z,60.00
2018-01-28T21:35:21.193Z,60.30
2018-01-28T21:37:48.780Z,59.80
2018-01-28T21:40:16.343Z,60.70
2018-01-28T21:42:44.668Z,61.80
2018-01-28T21:45:12.236Z,61.80
2018-01-28T21:47:39.793Z,61.80
2018-01-28T21:50:07.456Z,62.20
2018-01-28T21:52:35.040Z,62.60
2018-01-28T21:55:02.583Z,63.00
2018-01-28T21:57:30.128Z,63.60
2018-01-28T21:59:57.693Z,63.40
2018-01-28T22:02:25.237Z,63.20
2018-01-28T22:04:52.806Z,63.90
2018-01-28T22:07:20.368Z,64.00
2018-01-28T22:09:47.945Z,63.30
2018-01-28T22:12:15.488Z,63.20
2018-01-28T22:14:43.056Z,64.70
2018-01-28T22:17:10.622Z,64.70
2018-01-28T22:19:38.155Z,64.50
2018-01-28T22:22:05.718Z,64.40
2018-01-28T22:24:33.265Z,64.60
2018-01-28T22:27:00.815Z,65.20
2018-01-28T22:29:29.128Z,65.80
2018-01-28T22:31:56.684Z,65.80
2018-01-28T22:34:24.232Z,66.00
2018-01-28T22:36:51.810Z,66.10
2018-01-28T22:39:19.371Z,66.60
2018-01-28T22:41:46.935Z,66.90
2018-01-28T22:44:14.501Z,67.10
2018-01-28T22:46:42.059Z,67.60
2018-01-28T22:49:09.641Z,67.70
2018-01-28T22:51:37.193Z,68.60
2018-01-28T22:54:04.751Z,69.00
2018-01-28T22:56:32.301Z,69.80
2018-01-28T22:58:59.855Z,69.80
2018-01-28T23:01:27.401Z,69.90
2018-01-28T23:03:54.939Z,70.40
2018-01-28T23:06:22.515Z,70.00
2018-01-28T23:08:50.051Z,70.20
2018-01-28T23:11:17.627Z,70.10
2018-01-28T23:13:45.173Z,69.80
2018-01-28T23:16:12.728Z,70.70
2018-01-28T23:18:40.262Z,71.10
2018-01-28T23:21:08.611Z,71.20
2018-01-28T23:23:36.161Z,71.20
2018-01-28T23:26:03.722Z,71.10
2018-01-28T23:28:31.278Z,71.90
2018-01-28T23:30:58.821Z,71.90
2018-01-28T23:33:26.402Z,72.10
2018-01-28T23:35:53.944Z,72.60
2018-01-28T23:38:21.524Z,72.70
2018-01-28T23:40:49.082Z,72.70
2018-01-28T23:43:16.645Z,72.80
2018-01-28T23:45:44.193Z,73.10
2018-01-28T23:48:11.780Z,72.60
2018-01-28T23:50:39.336Z,73.00
2018-01-28T23:53:06.896Z,73.30
2018-01-28T23:55:34.450Z,73.30
2018-01-28T23:58:02.002Z,74.20
